createdAt,value
2022-11-12T00:00:06.585Z,81.32
2022-11-12T00:01:28.913Z,73.85
2022-11-12T00:02:50.550Z,59.28
2022-11-12T00:04:13.061Z,64.93
2022-11-12T00:05:34.319Z,83.97
2022-11-12T00:06:57.976Z,94.03
2022-11-12T00:08:19.121Z,81.45
2022-11-12T00:09:41.432Z,68.18
2022-11-12T00:11:05.127Z,74.05
2022-11-12T00:12:26.162Z,67.88
2022-11-12T00:13:48.740Z,76.13
2022-11-12T00:15:11.090Z,70.93
2022-11-12T00:16:33.622Z,65.30
2022-11-12T00:17:54.940Z,63.38
2022-11-12T00:19:17.091Z,65.70
2022-11-12T00:20:38.310Z,66.57
2022-11-12T00:22:01.884Z,66.93
2022-11-12T00:23:23.283Z,59.22
2022-11-12T00:24:45.679Z,65.75
2022-11-12T00:26:08.079Z,70.30
2022-11-12T00:27:30.183Z,68.25
2022-11-12T00:28:52.252Z,158.35
2022-11-12T00:30:13.783Z,89.15
2022-11-12T00:31:37.381Z,115.90
2022-11-12T00:32:58.962Z,75.72
2022-11-12T00:34:21.414Z,74.32
2022-11-12T00:35:42.822Z,83.75
2022-11-12T00:37:06.495Z,93.10
2022-11-12T00:38:31.710Z,77.43
2022-11-12T00:39:52.961Z,71.32
2022-11-12T00:41:15.048Z,74.30
2022-11-12T00:42:36.550Z,83.95
2022-11-12T00:43:59.043Z,108.00
2022-11-12T00:45:21.906Z,91.65
2022-11-12T00:46:43.276Z,93.90
2022-11-12T00:48:05.720Z,102.68
2022-11-12T00:49:28.102Z,96.95
2022-11-12T00:50:49.654Z,89.55
2022-11-12T00:52:13.186Z,100.43
2022-11-12T00:53:35.412Z,72.68
2022-11-12T00:54:56.566Z,84.78
2022-11-12T00:56:19.110Z,92.40
2022-11-12T00:57:41.210Z,64.10
2022-11-12T00:59:02.543Z,72.20
2022-11-12T01:00:24.942Z,70.35
2022-11-12T01:01:46.522Z,55.67
2022-11-12T01:03:08.733Z,67.68
2022-11-12T01:04:29.994Z,66.50
2022-11-12T01:05:52.432Z,56.20
2022-11-12T01:07:16.195Z,49.30
2022-11-12T01:08:38.814Z,50.83
2022-11-12T01:09:59.943Z,58.15
2022-11-12T01:11:24.201Z,45.42
2022-11-12T01:12:45.552Z,48.88
2022-11-12T01:14:09.452Z,46.97
2022-11-12T01:15:30.783Z,56.17
2022-11-12T01:16:53.214Z,55.35
2022-11-12T01:18:14.572Z,58.63
2022-11-12T01:19:37.030Z,77.00
2022-11-12T01:21:01.975Z,53.28
2022-11-12T01:22:25.864Z,53.95
2022-11-12T01:23:47.029Z,55.40
2022-11-12T01:25:09.913Z,59.05
2022-11-12T01:26:31.374Z,58.78
2022-11-12T01:27:53.822Z,60.85
2022-11-12T01:29:15.152Z,60.78
2022-11-12T01:30:37.428Z,68.20
2022-11-12T01:31:59.615Z,68.53
2022-11-12T01:33:20.572Z,74.38
2022-11-12T01:34:42.799Z,99.28
2022-11-12T01:36:04.033Z,105.05
2022-11-12T01:37:27.601Z,56.67
2022-11-12T01:38:49.744Z,147.73
2022-11-12T01:40:12.795Z,88.15
2022-11-12T01:41:36.902Z,70.20
2022-11-12T01:42:59.331Z,63.75
2022-11-12T01:44:22.802Z,77.15
2022-11-12T01:45:47.972Z,121.55
2022-11-12T01:47:13.510Z,85.60
2022-11-12T01:48:38.662Z,81.20
2022-11-12T01:50:02.587Z,131.63
2022-11-12T01:51:25.742Z,146.77
2022-11-12T01:52:52.160Z,86.22
2022-11-12T01:54:16.150Z,75.10
2022-11-12T01:55:39.243Z,74.05
2022-11-12T01:57:00.744Z,79.22
2022-11-12T01:58:25.369Z,77.97
2022-11-12T01:59:48.439Z,76.65
2022-11-12T02:01:10.702Z,86.00
2022-11-12T02:02:31.932Z,73.28
2022-11-12T02:03:54.116Z,65.50
2022-11-12T02:05:15.805Z,87.15
2022-11-12T02:06:38.473Z,97.43
2022-11-12T02:08:01.550Z,205.07
2022-11-12T02:09:24.091Z,89.65
2022-11-12T02:10:46.678Z,108.47
2022-11-12T02:12:08.060Z,121.13
2022-11-12T02:13:47.483Z,100.60
2022-11-12T02:15:10.559Z,99.85
2022-11-12T02:16:34.312Z,107.13
2022-11-12T02:17:56.379Z,128.95
2022-11-12T02:19:19.232Z,113.65
2022-11-12T02:20:40.829Z,177.25
2022-11-12T02:22:04.373Z,178.32
2022-11-12T02:23:25.714Z,174.60
2022-11-12T02:24:48.195Z,167.13
2022-11-12T02:26:09.652Z,128.20
2022-11-12T02:27:31.730Z,120.53
2022-11-12T02:28:52.810Z,89.68
2022-11-12T02:30:15.071Z,101.38
2022-11-12T02:31:37.277Z,102.05
2022-11-12T02:32:59.012Z,81.72
2022-11-12T02:34:21.161Z,83.32
2022-11-12T02:35:42.660Z,68.15
2022-11-12T02:37:06.323Z,71.20
2022-11-12T02:38:27.760Z,100.38
2022-11-12T02:39:50.462Z,76.28
2022-11-12T02:41:11.539Z,64.25
2022-11-12T02:42:33.990Z,68.38
2022-11-12T02:43:56.000Z,74.70
2022-11-12T02:45:18.235Z,65.47
2022-11-12T02:46:40.712Z,77.60
2022-11-12T02:48:01.979Z,61.70
2022-11-12T02:49:24.458Z,64.82
2022-11-12T02:50:47.913Z,62.15
2022-11-12T02:52:10.471Z,58.35
2022-11-12T02:53:33.341Z,56.85
2022-11-12T02:54:54.361Z,54.65
2022-11-12T02:56:16.670Z,53.28
2022-11-12T02:57:39.980Z,49.70
2022-11-12T02:59:01.688Z,55.88
2022-11-12T03:00:24.370Z,58.42
2022-11-12T03:01:46.890Z,66.90
2022-11-12T03:03:08.163Z,63.25
2022-11-12T03:04:30.690Z,89.93
2022-11-12T03:06:00.810Z,97.57
2022-11-12T03:07:24.508Z,156.52
2022-11-12T03:08:47.036Z,202.43
2022-11-12T03:10:10.193Z,118.63
2022-11-12T03:11:32.670Z,161.30
2022-11-12T03:12:53.852Z,127.53
2022-11-12T03:14:16.196Z,150.38
2022-11-12T03:15:38.283Z,128.65
2022-11-12T03:16:59.379Z,163.77
2022-11-12T03:18:21.533Z,172.73
2022-11-12T03:19:43.036Z,153.63
2022-11-12T03:21:06.008Z,95.88
2022-11-12T03:22:28.694Z,82.90
2022-11-12T03:23:51.218Z,67.70
2022-11-12T03:25:12.651Z,66.30
2022-11-12T03:26:36.077Z,66.25
2022-11-12T03:27:58.600Z,73.18
2022-11-12T03:29:21.131Z,78.47
2022-11-12T03:30:43.450Z,72.82
2022-11-12T03:32:06.290Z,71.78
2022-11-12T03:33:27.670Z,76.30
2022-11-12T03:34:55.142Z,62.97
2022-11-12T03:36:18.038Z,66.00
2022-11-12T03:37:40.923Z,63.92
2022-11-12T03:39:03.404Z,56.17
2022-11-12T03:40:26.288Z,56.08
2022-11-12T03:41:47.516Z,75.30
2022-11-12T03:43:10.611Z,81.20
2022-11-12T03:44:32.917Z,85.25
2022-11-12T03:45:55.304Z,62.78
2022-11-12T03:47:16.764Z,66.45
2022-11-12T03:48:38.869Z,69.75
2022-11-12T03:49:59.900Z,72.28
2022-11-12T03:51:22.919Z,77.75
2022-11-12T03:52:46.916Z,70.72
2022-11-12T03:54:09.571Z,56.83
2022-11-12T03:55:31.291Z,70.43
2022-11-12T03:56:53.539Z,84.32
2022-11-12T03:58:16.197Z,88.07
2022-11-12T03:59:37.852Z,61.60
2022-11-12T04:01:00.169Z,81.45
2022-11-12T04:02:21.503Z,71.72
2022-11-12T04:03:43.840Z,74.32
2022-11-12T04:05:25.009Z,69.75
2022-11-12T04:07:04.824Z,71.95
2022-11-12T04:08:36.565Z,72.55
2022-11-12T04:09:58.672Z,61.80
2022-11-12T04:11:21.335Z,90.03
2022-11-12T04:13:00.773Z,98.55
2022-11-12T04:14:23.163Z,97.32
2022-11-12T04:15:44.422Z,131.65
2022-11-12T04:17:23.571Z,249.30
2022-11-12T04:19:04.831Z,283.42
2022-11-12T04:20:44.533Z,171.68
2022-11-12T04:22:09.101Z,343.10
2022-11-12T04:23:31.740Z,316.80
2022-11-12T04:25:11.290Z,323.05
2022-11-12T04:26:33.803Z,198.60
2022-11-12T04:27:54.972Z,418.08
2022-11-12T04:29:37.563Z,294.85
2022-11-12T04:30:59.844Z,428.13
2022-11-12T04:32:21.277Z,425.13
2022-11-12T04:33:44.133Z,371.20
2022-11-12T04:35:07.435Z,223.30
2022-11-12T04:36:28.322Z,262.77
2022-11-12T04:37:50.762Z,124.47
2022-11-12T04:39:13.420Z,151.07
2022-11-12T04:40:52.810Z,142.50
2022-11-12T04:42:32.750Z,232.45
2022-11-12T04:44:12.233Z,325.73
2022-11-12T04:45:42.437Z,221.65
2022-11-12T04:47:03.452Z,145.40
2022-11-12T04:48:26.831Z,108.40
2022-11-12T04:49:48.019Z,186.90
2022-11-12T04:51:31.751Z,173.50
2022-11-12T04:52:53.123Z,168.48
2022-11-12T04:54:16.917Z,107.70
2022-11-12T04:55:39.006Z,109.55
2022-11-12T04:57:00.043Z,123.55
2022-11-12T04:58:22.830Z,108.68
2022-11-12T04:59:44.235Z,118.03
2022-11-12T05:01:06.440Z,94.32
2022-11-12T05:02:28.729Z,117.80
2022-11-12T05:03:50.091Z,98.50
2022-11-12T05:05:12.389Z,91.60
2022-11-12T05:06:51.570Z,96.55
2022-11-12T05:08:13.771Z,77.20
2022-11-12T05:09:36.802Z,103.35
2022-11-12T05:10:58.990Z,85.53
2022-11-12T05:12:20.081Z,75.75
2022-11-12T05:13:42.164Z,73.47
2022-11-12T05:15:05.140Z,98.60
2022-11-12T05:16:26.603Z,82.95
2022-11-12T05:17:49.295Z,80.20
2022-11-12T05:19:10.371Z,63.95
2022-11-12T05:20:32.714Z,68.40
2022-11-12T05:22:06.502Z,67.55
2022-11-12T05:23:28.610Z,91.63
2022-11-12T05:24:52.320Z,75.18
2022-11-12T05:26:13.393Z,71.85
2022-11-12T05:27:36.251Z,130.25
2022-11-12T05:28:57.722Z,87.70
2022-11-12T05:30:20.261Z,169.85
2022-11-12T05:31:41.272Z,208.32
2022-11-12T05:33:03.934Z,255.10
2022-11-12T05:34:26.221Z,224.52
2022-11-12T05:35:47.669Z,328.92
2022-11-12T05:37:10.518Z,421.95
2022-11-12T05:38:31.836Z,385.85
2022-11-12T05:39:55.431Z,399.70
2022-11-12T05:41:20.120Z,392.15
2022-11-12T05:42:42.880Z,195.30
2022-11-12T05:44:04.421Z,258.27
2022-11-12T05:45:26.901Z,379.77
2022-11-12T05:46:50.481Z,328.48
2022-11-12T05:48:12.491Z,295.08
2022-11-12T05:49:34.633Z,169.07
2022-11-12T05:51:12.405Z,211.25
2022-11-12T05:52:35.453Z,194.65
2022-11-12T05:53:57.110Z,175.05
2022-11-12T05:55:20.932Z,333.92
2022-11-12T05:56:43.188Z,386.23
2022-11-12T05:58:06.125Z,208.27
2022-11-12T05:59:28.000Z,406.27
2022-11-12T06:00:49.322Z,229.50
2022-11-12T06:02:11.521Z,231.32
2022-11-12T06:03:32.830Z,94.25
2022-11-12T06:04:54.901Z,72.68
2022-11-12T06:06:16.395Z,98.00
2022-11-12T06:07:38.921Z,90.68
2022-11-12T06:09:01.286Z,126.13
2022-11-12T06:10:24.831Z,104.47
2022-11-12T06:11:47.229Z,86.15
2022-11-12T06:13:08.539Z,76.40
2022-11-12T06:14:30.912Z,67.25
2022-11-12T06:15:52.088Z,74.93
2022-11-12T06:17:14.107Z,88.10
2022-11-12T06:18:35.521Z,70.00
2022-11-12T06:19:58.071Z,70.28
2022-11-12T06:21:23.162Z,66.85
2022-11-12T06:22:45.596Z,70.60
2022-11-12T06:24:08.389Z,70.25
2022-11-12T06:25:31.020Z,69.43
2022-11-12T06:26:53.051Z,106.13
2022-11-12T06:28:14.270Z,65.40
2022-11-12T06:29:36.560Z,62.92
2022-11-12T06:30:59.083Z,73.45
2022-11-12T06:32:20.310Z,96.22
2022-11-12T06:33:43.271Z,84.53
2022-11-12T06:35:05.096Z,74.60
2022-11-12T06:36:27.212Z,84.07
2022-11-12T06:37:48.899Z,116.63
2022-11-12T06:39:12.449Z,275.10
2022-11-12T06:40:35.259Z,329.48
2022-11-12T06:41:57.511Z,339.00
2022-11-12T06:43:18.662Z,419.27
2022-11-12T06:44:41.121Z,217.40
2022-11-12T06:46:02.982Z,225.43
2022-11-12T06:47:25.357Z,158.57
2022-11-12T06:48:47.836Z,119.05
2022-11-12T06:50:09.692Z,113.13
2022-11-12T06:51:31.800Z,131.75
2022-11-12T06:52:58.859Z,105.82
2022-11-12T06:54:21.069Z,162.25
2022-11-12T06:55:44.509Z,127.10
2022-11-12T06:57:06.821Z,238.07
2022-11-12T06:58:28.384Z,162.63
2022-11-12T06:59:51.163Z,315.90
2022-11-12T07:01:15.102Z,305.23
2022-11-12T07:02:37.658Z,257.17
2022-11-12T07:03:59.809Z,179.57
2022-11-12T07:05:20.972Z,206.50
2022-11-12T07:06:43.383Z,179.48
2022-11-12T07:08:06.044Z,285.52
2022-11-12T07:09:28.259Z,129.70
2022-11-12T07:10:52.131Z,319.58
2022-11-12T07:12:14.650Z,287.48
2022-11-12T07:13:40.625Z,328.17
2022-11-12T07:15:01.827Z,367.23
2022-11-12T07:16:24.416Z,254.70
2022-11-12T07:17:47.235Z,104.18
2022-11-12T07:19:09.669Z,88.90
2022-11-12T07:20:31.012Z,87.65
2022-11-12T07:21:53.578Z,153.10
2022-11-12T07:23:15.716Z,114.22
2022-11-12T07:24:38.342Z,143.43
2022-11-12T07:26:03.921Z,94.35
2022-11-12T07:27:25.410Z,149.90
2022-11-12T07:28:48.042Z,111.18
2022-11-12T07:30:11.189Z,66.55
2022-11-12T07:31:32.374Z,82.18
2022-11-12T07:32:55.192Z,92.38
2022-11-12T07:34:20.551Z,87.32
2022-11-12T07:35:43.759Z,74.22
2022-11-12T07:37:06.186Z,75.18
2022-11-12T07:38:29.444Z,79.07
2022-11-12T07:39:52.101Z,74.13
2022-11-12T07:41:19.209Z,72.88
2022-11-12T07:42:41.804Z,76.47
2022-11-12T07:44:05.691Z,67.13
2022-11-12T07:45:28.663Z,65.57
2022-11-12T07:46:51.070Z,68.03
2022-11-12T07:48:13.651Z,64.05
2022-11-12T07:49:36.902Z,72.70
2022-11-12T07:51:03.141Z,58.63
2022-11-12T07:52:25.538Z,58.80
2022-11-12T07:53:48.942Z,61.03
2022-11-12T07:55:11.256Z,67.18
2022-11-12T07:56:35.241Z,67.03
2022-11-12T07:58:00.587Z,61.92
2022-11-12T07:59:22.942Z,61.30
2022-11-12T08:00:45.275Z,72.90
2022-11-12T08:02:09.972Z,62.20
2022-11-12T08:03:32.539Z,59.95
2022-11-12T08:04:54.711Z,63.63
2022-11-12T08:06:17.159Z,65.60
2022-11-12T08:07:39.649Z,61.03
2022-11-12T08:09:02.922Z,58.50
2022-11-12T08:10:25.181Z,54.08
2022-11-12T08:11:49.382Z,58.95
2022-11-12T08:13:12.153Z,57.03
2022-11-12T08:14:34.741Z,58.95
2022-11-12T08:15:58.750Z,57.13
2022-11-12T08:17:21.333Z,55.85
2022-11-12T08:18:43.912Z,63.05
2022-11-12T08:20:07.238Z,56.03
2022-11-12T08:21:29.920Z,57.08
2022-11-12T08:22:52.421Z,54.28
2022-11-12T08:24:14.754Z,53.70
2022-11-12T08:25:38.166Z,53.25
2022-11-12T08:27:01.990Z,52.15
2022-11-12T08:28:23.589Z,58.70
2022-11-12T08:29:47.258Z,54.25
2022-11-12T08:31:10.692Z,63.38
2022-11-12T08:32:33.412Z,58.97
2022-11-12T08:33:55.851Z,66.13
2022-11-12T08:35:18.383Z,60.83
2022-11-12T08:36:41.472Z,64.40
2022-11-12T08:38:05.583Z,51.08
2022-11-12T08:39:28.284Z,59.20
2022-11-12T08:40:50.470Z,59.88
2022-11-12T08:42:14.402Z,54.88
2022-11-12T08:43:37.218Z,57.33
2022-11-12T08:44:59.652Z,60.25
2022-11-12T08:46:21.882Z,59.72
2022-11-12T08:47:44.662Z,54.95
2022-11-12T08:49:07.023Z,60.63
2022-11-12T08:50:29.051Z,63.03
2022-11-12T08:51:52.029Z,60.25
2022-11-12T08:53:14.962Z,62.28
2022-11-12T08:54:37.221Z,67.38
2022-11-12T08:55:59.611Z,57.85
2022-11-12T08:57:23.501Z,60.20
2022-11-12T08:58:46.080Z,58.10
2022-11-12T09:00:09.397Z,58.88
2022-11-12T09:01:32.158Z,53.25
2022-11-12T09:02:54.498Z,59.15
2022-11-12T09:04:17.020Z,55.83
2022-11-12T09:05:39.420Z,56.42
2022-11-12T09:07:02.656Z,52.20
2022-11-12T09:08:26.746Z,57.58
2022-11-12T09:09:49.364Z,59.25
2022-11-12T09:11:12.069Z,60.42
2022-11-12T09:12:36.053Z,53.33
2022-11-12T09:13:58.631Z,55.88
2022-11-12T09:15:37.926Z,59.58
2022-11-12T09:17:00.811Z,58.92
2022-11-12T09:18:22.210Z,58.25
2022-11-12T09:19:44.471Z,55.05
2022-11-12T09:21:08.671Z,57.25
2022-11-12T09:22:32.433Z,52.13
2022-11-12T09:23:55.801Z,55.20
2022-11-12T09:25:17.517Z,55.50
2022-11-12T09:26:40.000Z,56.63
2022-11-12T09:28:09.810Z,51.63
2022-11-12T09:29:32.400Z,45.63
2022-11-12T09:30:55.908Z,47.00
2022-11-12T09:32:18.069Z,42.78
2022-11-12T09:33:40.649Z,48.40
2022-11-12T09:35:03.281Z,42.63
2022-11-12T09:36:25.810Z,56.78
2022-11-12T09:37:47.351Z,40.75
2022-11-12T09:39:09.650Z,42.13
2022-11-12T09:40:42.961Z,43.20
2022-11-12T09:42:08.822Z,39.50
2022-11-12T09:43:34.230Z,39.10
2022-11-12T09:44:59.201Z,35.45
2022-11-12T09:46:35.479Z,40.53
2022-11-12T09:48:00.652Z,43.72
2022-11-12T09:49:26.082Z,39.45
2022-11-12T09:50:55.930Z,35.35
2022-11-12T09:52:20.954Z,40.88
2022-11-12T09:53:48.943Z,39.65
2022-11-12T09:55:16.622Z,34.60
2022-11-12T09:56:39.147Z,35.22
2022-11-12T09:58:01.827Z,35.63
2022-11-12T09:59:28.808Z,33.65
2022-11-12T10:00:56.420Z,31.90
2022-11-12T10:02:28.629Z,37.60
2022-11-12T10:03:55.529Z,31.08
2022-11-12T10:05:29.824Z,32.30
2022-11-12T10:07:00.435Z,37.22
2022-11-12T10:08:33.195Z,35.55
2022-11-12T10:10:03.387Z,32.47
2022-11-12T10:12:14.572Z,35.88
2022-11-12T10:13:47.881Z,33.95
2022-11-12T10:16:03.704Z,35.47
2022-11-12T10:17:33.650Z,38.10
2022-11-12T10:19:18.110Z,39.50
2022-11-12T10:20:47.851Z,41.30
2022-11-12T10:22:25.073Z,40.40
2022-11-12T10:23:48.783Z,39.13
2022-11-12T10:25:16.041Z,40.20
2022-11-12T10:26:39.025Z,43.88
2022-11-12T10:28:03.690Z,47.60
2022-11-12T10:29:31.522Z,44.63
2022-11-12T10:30:58.112Z,42.72
2022-11-12T10:32:20.519Z,43.75
2022-11-12T10:33:43.121Z,37.88
2022-11-12T10:35:06.247Z,39.00
2022-11-12T10:36:33.673Z,35.38
2022-11-12T10:37:58.411Z,30.85
2022-11-12T10:39:37.353Z,45.47
2022-11-12T10:40:59.512Z,33.08
2022-11-12T10:42:22.835Z,31.27
2022-11-12T10:43:54.950Z,30.10
2022-11-12T10:45:21.911Z,33.55
2022-11-12T10:46:45.590Z,33.58
2022-11-12T10:48:26.961Z,31.23
2022-11-12T10:50:03.801Z,29.08
2022-11-12T10:51:28.744Z,33.28
2022-11-12T10:52:59.880Z,31.52
2022-11-12T10:54:30.203Z,27.48
2022-11-12T10:55:59.711Z,27.98
2022-11-12T10:57:23.039Z,27.70
2022-11-12T10:58:45.356Z,29.92
2022-11-12T11:00:09.400Z,28.23
2022-11-12T11:01:35.887Z,30.02
2022-11-12T11:03:00.822Z,28.27
2022-11-12T11:04:31.579Z,26.48
2022-11-12T11:05:57.301Z,24.55
2022-11-12T11:07:23.215Z,24.75
2022-11-12T11:08:47.236Z,23.13
2022-11-12T11:10:24.823Z,24.20
2022-11-12T11:11:50.902Z,26.85
2022-11-12T11:13:23.770Z,20.73
2022-11-12T11:14:45.880Z,20.38
2022-11-12T11:16:10.212Z,18.80
2022-11-12T11:17:32.690Z,19.20
2022-11-12T11:19:00.047Z,18.52
2022-11-12T11:20:24.551Z,22.30
2022-11-12T11:22:22.631Z,19.45
2022-11-12T11:23:49.920Z,18.35
2022-11-12T11:25:22.081Z,19.45
2022-11-12T11:26:54.380Z,16.60
2022-11-12T11:28:21.167Z,16.90
2022-11-12T11:30:03.594Z,16.13
2022-11-12T11:31:35.701Z,12.27
2022-11-12T11:33:24.975Z,13.65
2022-11-12T11:34:58.454Z,12.68
2022-11-12T11:36:25.730Z,12.32
2022-11-12T11:37:58.643Z,14.05
2022-11-12T11:39:28.473Z,16.17
2022-11-12T11:40:58.343Z,13.70
2022-11-12T11:42:40.410Z,11.80
2022-11-12T11:44:13.804Z,12.57
2022-11-12T11:45:50.516Z,14.68
2022-11-12T11:47:23.232Z,15.15
2022-11-12T11:48:54.930Z,16.50
2022-11-12T11:50:24.055Z,10.93
2022-11-12T11:51:52.299Z,11.38
2022-11-12T11:53:23.238Z,13.55
2022-11-12T11:54:57.382Z,11.73
2022-11-12T11:56:23.801Z,11.32
2022-11-12T11:57:54.621Z,14.98
2022-11-12T11:59:24.929Z,14.02
2022-11-12T12:00:49.845Z,17.50
2022-11-12T12:02:28.287Z,11.68
2022-11-12T12:04:03.184Z,12.57
2022-11-12T12:05:37.809Z,13.88
2022-11-12T12:07:09.722Z,17.45
2022-11-12T12:08:41.357Z,11.77
2022-11-12T12:10:09.637Z,13.15
2022-11-12T12:11:36.163Z,11.23
2022-11-12T12:13:01.461Z,18.65
2022-11-12T12:14:33.350Z,12.90
2022-11-12T12:16:16.317Z,13.07
2022-11-12T12:17:49.104Z,16.02
2022-11-12T12:19:22.501Z,17.48
2022-11-12T12:20:50.046Z,19.20
2022-11-12T12:22:15.411Z,12.85
2022-11-12T12:23:41.831Z,19.80
2022-11-12T12:25:11.134Z,16.02
2022-11-12T12:26:38.979Z,17.25
2022-11-12T12:28:03.289Z,13.98
2022-11-12T12:29:30.173Z,14.43
2022-11-12T12:30:54.301Z,14.95
2022-11-12T12:32:24.119Z,14.02
2022-11-12T12:33:50.156Z,13.15
2022-11-12T12:35:19.110Z,14.50
2022-11-12T12:36:43.614Z,16.92
2022-11-12T12:38:12.880Z,17.23
2022-11-12T12:39:47.526Z,33.67
2022-11-12T12:41:16.401Z,23.23
2022-11-12T12:42:43.512Z,18.83
2022-11-12T12:44:07.075Z,16.98
2022-11-12T12:45:37.328Z,14.43
2022-11-12T12:47:00.771Z,14.02
2022-11-12T12:48:25.283Z,13.27
2022-11-12T12:49:49.902Z,13.70
2022-11-12T12:51:12.302Z,14.57
2022-11-12T12:53:03.231Z,15.65
2022-11-12T12:54:57.029Z,15.38
2022-11-12T12:56:49.654Z,14.57
2022-11-12T12:58:29.172Z,14.00
2022-11-12T12:59:51.861Z,12.10
2022-11-12T13:01:28.412Z,12.88
2022-11-12T13:02:50.998Z,14.45
2022-11-12T13:04:13.201Z,15.57
2022-11-12T13:05:36.339Z,11.55
2022-11-12T13:06:59.234Z,14.88
2022-11-12T13:08:26.309Z,13.50
2022-11-12T13:09:49.309Z,14.73
2022-11-12T13:11:11.884Z,17.50
2022-11-12T13:13:03.581Z,22.10
2022-11-12T13:15:02.034Z,15.38
2022-11-12T13:17:02.505Z,12.50
2022-11-12T13:19:02.308Z,12.23
2022-11-12T13:20:40.298Z,14.57
2022-11-12T13:22:49.353Z,13.60
2022-11-12T13:24:13.251Z,12.05
2022-11-12T13:25:34.711Z,12.38
2022-11-12T13:27:03.637Z,15.15
2022-11-12T13:28:25.280Z,12.45
2022-11-12T13:29:49.784Z,19.45
2022-11-12T13:31:36.469Z,26.52
2022-11-12T13:33:11.851Z,14.30
2022-11-12T13:34:45.576Z,10.98
2022-11-12T13:36:43.519Z,15.25
2022-11-12T13:38:25.588Z,12.88
2022-11-12T13:39:56.980Z,16.10
2022-11-12T13:41:43.779Z,21.90
2022-11-12T13:43:12.353Z,18.75
2022-11-12T13:44:49.098Z,11.88
2022-11-12T13:46:33.471Z,12.55
2022-11-12T13:47:57.184Z,15.68
2022-11-12T13:49:19.669Z,10.80
2022-11-12T13:50:43.088Z,11.95
2022-11-12T13:52:07.816Z,10.48
2022-11-12T13:53:33.141Z,11.52
2022-11-12T13:55:09.424Z,13.23
2022-11-12T13:56:40.972Z,11.95
2022-11-12T13:58:05.598Z,9.65
2022-11-12T13:59:27.755Z,12.32
2022-11-12T14:00:54.383Z,10.82
2022-11-12T14:02:30.741Z,12.32
2022-11-12T14:04:02.744Z,11.77
2022-11-12T14:05:31.080Z,11.18
2022-11-12T14:06:59.330Z,8.57
2022-11-12T14:09:06.072Z,9.32
2022-11-12T14:10:46.266Z,12.20
2022-11-12T14:12:29.779Z,13.82
2022-11-12T14:14:12.894Z,14.15
2022-11-12T14:15:52.732Z,15.02
2022-11-12T14:17:23.465Z,16.40
2022-11-12T14:19:03.496Z,11.93
2022-11-12T14:20:30.681Z,12.90
2022-11-12T14:22:03.390Z,14.82
2022-11-12T14:23:26.852Z,12.68
2022-11-12T14:24:54.542Z,13.93
2022-11-12T14:26:35.432Z,15.38
2022-11-12T14:27:58.241Z,15.88
2022-11-12T14:29:19.819Z,12.65
2022-11-12T14:30:46.053Z,16.30
2022-11-12T14:32:10.913Z,14.35
2022-11-12T14:33:34.383Z,16.75
2022-11-12T14:34:55.668Z,15.45
2022-11-12T14:36:19.530Z,16.20
2022-11-12T14:37:43.920Z,19.95
2022-11-12T14:39:06.511Z,15.98
2022-11-12T14:40:29.379Z,21.38
2022-11-12T14:41:53.862Z,28.95
2022-11-12T14:43:27.652Z,29.52
2022-11-12T14:44:50.349Z,38.53
2022-11-12T14:46:22.979Z,39.00
2022-11-12T14:47:44.481Z,54.33
2022-11-12T14:49:13.652Z,32.65
2022-11-12T14:50:40.751Z,33.50
2022-11-12T14:52:10.382Z,35.42
2022-11-12T14:53:34.652Z,25.95
2022-11-12T14:54:57.920Z,28.52
2022-11-12T14:56:28.958Z,31.08
2022-11-12T14:57:59.640Z,25.17
2022-11-12T14:59:21.719Z,19.70
2022-11-12T15:00:45.220Z,20.85
2022-11-12T15:04:06.404Z,19.40
2022-11-12T15:05:28.022Z,16.38
2022-11-12T15:06:54.724Z,18.33
2022-11-12T15:08:33.070Z,18.10
2022-11-12T15:09:55.993Z,15.98
2022-11-12T15:11:24.294Z,17.67
2022-11-12T15:12:46.889Z,13.68
2022-11-12T15:14:21.661Z,16.73
2022-11-12T15:15:52.609Z,16.45
2022-11-12T15:17:27.512Z,15.68
2022-11-12T15:19:05.100Z,11.20
2022-11-12T15:20:27.968Z,16.52
2022-11-12T15:21:53.155Z,12.00
2022-11-12T15:23:20.080Z,16.77
2022-11-12T15:24:44.966Z,14.63
2022-11-12T15:26:10.585Z,7.72
2022-11-12T15:27:37.330Z,21.83
2022-11-12T15:29:04.306Z,13.13
2022-11-12T15:30:30.785Z,22.30
2022-11-12T15:31:54.363Z,11.55
2022-11-12T15:33:20.060Z,11.70
2022-11-12T15:34:50.038Z,12.10
2022-11-12T15:36:17.521Z,12.82
2022-11-12T15:37:43.694Z,14.13
2022-11-12T15:39:13.919Z,15.63
2022-11-12T15:40:45.054Z,13.57
2022-11-12T15:42:16.077Z,13.80
2022-11-12T15:43:42.959Z,19.08
2022-11-12T15:45:11.363Z,15.52
2022-11-12T15:46:35.380Z,17.45
2022-11-12T15:47:57.972Z,12.85
2022-11-12T15:49:21.183Z,15.20
2022-11-12T15:50:43.914Z,17.75
2022-11-12T15:52:05.226Z,12.23
2022-11-12T15:53:28.979Z,21.52
2022-11-12T15:54:51.562Z,15.00
2022-11-12T15:56:16.310Z,10.88
2022-11-12T15:57:41.560Z,23.27
2022-11-12T15:59:04.861Z,24.17
2022-11-12T16:00:32.212Z,33.30
2022-11-12T16:01:56.203Z,20.63
2022-11-12T16:03:20.765Z,18.10
2022-11-12T16:04:43.172Z,21.05
2022-11-12T16:06:09.167Z,29.95
2022-11-12T16:07:31.700Z,32.20
2022-11-12T16:08:53.711Z,45.58
2022-11-12T16:10:18.310Z,43.75
2022-11-12T16:11:41.066Z,30.27
2022-11-12T16:13:04.390Z,35.35
2022-11-12T16:14:26.713Z,50.03
2022-11-12T16:15:51.753Z,48.20
2022-11-12T16:17:17.075Z,37.90
2022-11-12T16:18:39.838Z,52.25
2022-11-12T16:20:02.248Z,49.90
2022-11-12T16:21:25.468Z,37.65
2022-11-12T16:22:47.837Z,151.88
2022-11-12T16:24:10.303Z,279.77
2022-11-12T16:25:34.614Z,107.57
2022-11-12T16:26:57.069Z,50.15
2022-11-12T16:28:20.391Z,46.35
2022-11-12T16:29:42.972Z,47.72
2022-11-12T16:31:05.780Z,36.97
2022-11-12T16:32:29.803Z,39.38
2022-11-12T16:33:51.841Z,40.58
2022-11-12T16:35:14.254Z,35.08
2022-11-12T16:36:36.561Z,37.53
2022-11-12T16:37:59.503Z,31.58
2022-11-12T16:39:21.836Z,31.42
2022-11-12T16:40:44.870Z,32.55
2022-11-12T16:42:07.230Z,31.27
2022-11-12T16:43:29.536Z,36.92
2022-11-12T16:44:52.891Z,39.58
2022-11-12T16:46:18.297Z,42.35
2022-11-12T16:47:46.397Z,31.27
2022-11-12T16:49:15.032Z,849.15
2022-11-12T16:50:37.623Z,94.25
2022-11-12T16:52:01.753Z,164.90
2022-11-12T16:53:24.331Z,104.00
2022-11-12T16:54:47.394Z,51.53
2022-11-12T16:56:13.932Z,35.33
2022-11-12T16:57:37.458Z,49.35
2022-11-12T16:58:59.774Z,31.30
2022-11-12T17:00:22.672Z,47.55
2022-11-12T17:01:46.189Z,38.53
2022-11-12T17:03:13.077Z,55.78
2022-11-12T17:04:36.789Z,35.17
2022-11-12T17:05:59.574Z,72.35
2022-11-12T17:07:28.959Z,98.88
2022-11-12T17:08:56.621Z,166.93
2022-11-12T17:10:24.134Z,52.60
2022-11-12T17:11:47.027Z,47.13
2022-11-12T17:13:15.307Z,47.53
2022-11-12T17:14:40.420Z,49.25
2022-11-12T17:16:08.483Z,60.72
2022-11-12T17:17:32.745Z,67.80
2022-11-12T17:18:58.743Z,53.03
2022-11-12T17:20:21.359Z,67.80
2022-11-12T17:21:45.181Z,74.05
2022-11-12T17:23:07.439Z,59.47
2022-11-12T17:24:30.102Z,60.55
2022-11-12T17:26:01.953Z,60.38
2022-11-12T17:27:30.981Z,62.83
2022-11-12T17:29:03.507Z,170.20
2022-11-12T17:30:32.869Z,59.80
2022-11-12T17:31:55.727Z,66.53
2022-11-12T17:33:25.213Z,88.20
2022-11-12T17:34:54.823Z,98.82
2022-11-12T17:36:24.672Z,113.35
2022-11-12T17:37:49.088Z,115.25
2022-11-12T17:39:14.027Z,229.15
2022-11-12T17:40:35.590Z,106.55
2022-11-12T17:42:00.330Z,113.57
2022-11-12T17:43:22.313Z,144.18
2022-11-12T17:44:51.883Z,95.30
2022-11-12T17:46:22.153Z,230.05
2022-11-12T17:47:47.116Z,68.93
2022-11-12T17:49:11.246Z,49.13
2022-11-12T17:50:35.612Z,52.92
2022-11-12T17:51:58.160Z,46.85
2022-11-12T17:53:20.838Z,69.82
2022-11-12T17:54:44.542Z,104.30
2022-11-12T17:56:09.834Z,72.70
2022-11-12T17:57:33.452Z,64.13
2022-11-12T17:58:56.331Z,79.57
2022-11-12T18:00:19.799Z,93.88
2022-11-12T18:01:42.344Z,89.63
2022-11-12T18:03:05.052Z,102.97
2022-11-12T18:04:31.113Z,242.05
2022-11-12T18:06:05.234Z,78.85
2022-11-12T18:07:32.673Z,166.27
2022-11-12T18:08:57.482Z,197.13
2022-11-12T18:10:21.492Z,192.80
2022-11-12T18:11:50.532Z,163.52
2022-11-12T18:13:14.706Z,201.80
2022-11-12T18:14:39.193Z,192.93
2022-11-12T18:16:14.926Z,149.57
2022-11-12T18:17:38.562Z,135.23
2022-11-12T18:19:01.882Z,124.65